createdAt,value
2022-11-14T00:00:12.803Z,22.5
2022-11-14T00:15:03.557Z,22.5
2022-11-14T00:30:08.670Z,22.5
2022-11-14T00:45:03.336Z,22.4
2022-11-14T01:00:05.782Z,22.4
2022-11-14T01:15:02.983Z,22.4
2022-11-14T01:30:07.729Z,22.4
2022-11-14T01:45:02.262Z,22.4
2022-11-14T02:00:04.990Z,22.4
2022-11-14T02:15:03.353Z,22.4
2022-11-14T02:30:07.501Z,22.4
2022-11-14T02:45:02.625Z,22.4
2022-11-14T03:00:10.078Z,22.4
2022-11-14T03:15:03.587Z,22.4
2022-11-14T03:30:06.143Z,22.4
2022-11-14T03:45:03.257Z,22.4
2022-11-14T04:00:08.394Z,22.4
2022-11-14T04:15:02.401Z,22.4
2022-11-14T04:30:06.943Z,22.4
2022-11-14T04:45:03.256Z,22.4
2022-11-14T05:00:07.954Z,22.3
2022-11-14T05:15:02.349Z,22.3
2022-11-14T05:30:07.020Z,22.3
2022-11-14T05:45:03.849Z,22.3
2022-11-14T06:00:08.324Z,22.3
2022-11-14T06:15:02.664Z,22.4
2022-11-14T06:30:08.999Z,22.3
2022-11-14T06:45:03.803Z,22.5
2022-11-14T07:00:11.081Z,22.5
2022-11-14T07:15:02.312Z,22.7
2022-11-14T07:30:09.743Z,22.7
2022-11-14T07:45:02.084Z,22.8
2022-11-14T08:00:08.644Z,22.9
2022-11-14T08:15:02.757Z,23.0
2022-11-14T08:30:08.527Z,23.1
2022-11-14T08:45:04.339Z,23.2
2022-11-14T09:00:11.309Z,23.3
2022-11-14T09:15:02.585Z,23.4
2022-11-14T09:30:11.160Z,23.4
2022-11-14T09:45:02.144Z,23.5
2022-11-14T10:00:10.451Z,23.6
2022-11-14T10:15:03.553Z,23.7
2022-11-14T10:30:11.651Z,23.7
2022-11-14T10:45:02.502Z,23.8
2022-11-14T11:00:06.316Z,23.8
2022-11-14T11:15:02.304Z,23.8
2022-11-14T11:30:08.309Z,23.9
2022-11-14T11:45:04.658Z,23.9
2022-11-14T12:00:10.760Z,23.9
2022-11-14T12:15:02.858Z,24.0
2022-11-14T12:30:06.982Z,24
2022-11-14T12:45:02.658Z,24.1
2022-11-14T13:00:09.646Z,24.1
2022-11-14T13:15:02.979Z,24.2
2022-11-14T13:30:09.016Z,24.2
2022-11-14T13:45:04.268Z,24.2
2022-11-14T14:00:06.489Z,24.2
2022-11-14T14:15:02.722Z,24.1
2022-11-14T14:30:08.868Z,24.1
2022-11-14T14:45:04.340Z,24.0
2022-11-14T15:00:08.133Z,24
2022-11-14T15:15:04.141Z,24
2022-11-14T15:30:08.701Z,24
2022-11-14T15:45:02.411Z,24
2022-11-14T16:00:09.349Z,23.9
2022-11-14T16:15:03.552Z,23.9
2022-11-14T16:30:11.169Z,23.9
2022-11-14T16:45:02.099Z,23.8
2022-11-14T17:00:10.913Z,23.8
2022-11-14T17:15:03.354Z,23.8
2022-11-14T17:30:08.628Z,23.7
2022-11-14T17:45:05.538Z,23.7
2022-11-14T18:00:08.223Z,23.7
2022-11-14T18:15:02.663Z,23.7
2022-11-14T18:30:19.944Z,23.7
2022-11-14T18:45:06.091Z,23.6
2022-11-14T19:00:11.546Z,23.5
2022-11-14T19:15:04.339Z,23.4
2022-11-14T19:30:08.311Z,23.4
2022-11-14T19:45:03.691Z,23.3
2022-11-14T20:00:07.932Z,23.3
2022-11-14T20:15:02.369Z,23.2
2022-11-14T20:30:06.432Z,23.2
2022-11-14T20:45:03.147Z,23.2
2022-11-14T21:00:09.159Z,23.1
2022-11-14T21:15:04.691Z,23.1
2022-11-14T21:30:08.084Z,23.0
2022-11-14T21:45:01.912Z,23
2022-11-14T22:00:07.356Z,23
2022-11-14T22:15:03.796Z,23
2022-11-14T22:30:09.159Z,22.9
2022-11-14T22:45:02.246Z,22.9
2022-11-14T23:00:07.782Z,22.9
2022-11-14T23:15:03.460Z,22.9
2022-11-14T23:30:08.077Z,22.9
2022-11-14T23:45:02.416Z,22.9
